Time;durP1;ratioP1;P1;durP2;ratioP2;P2;SDS_P1;SDS_P2;PMS_P1;PMS_P2;Temp;Humidity;BMP_temperature;BMP_pressure;BME280_temperature;BME280_humidity;BME280_pressure;Samples;Min_cycle;Max_cycle;Signal;HPM_P1;HPM_P2
2021/11/18 00:00:57;;;;;;;0.10;0.10;;;1.00;59.20;;;;;;5037277;28;20386;-85
2021/11/18 00:03:24;;;;;;;0.20;0.20;;;0.90;59.40;;;;;;5037537;28;20033;-85
2021/11/18 00:05:50;;;;;;;0.00;0.00;;;0.80;59.50;;;;;;5037461;28;20037;-85
2021/11/18 00:08:17;;;;;;;0.03;0.03;;;0.80;59.60;;;;;;5036298;28;20077;-85
2021/11/18 00:10:46;;;;;;;0.15;0.10;;;0.80;59.80;;;;;;5037894;28;20022;-85
2021/11/18 00:13:15;;;;;;;0.10;0.10;;;0.80;59.90;;;;;;5037953;28;20097;-84
2021/11/18 00:15:42;;;;;;;0.10;0.10;;;0.80;59.90;;;;;;5036093;28;20128;-85
2021/11/18 00:18:16;;;;;;;0.13;0.13;;;0.80;60.00;;;;;;5037629;28;20088;-85
2021/11/18 00:20:47;;;;;;;0.10;0.10;;;0.70;60.00;;;;;;5037023;28;20022;-85
2021/11/18 00:23:13;;;;;;;0.00;0.00;;;0.70;60.00;;;;;;5036818;28;20104;-85
2021/11/18 00:25:39;;;;;;;0.10;0.10;;;0.70;60.10;;;;;;5036865;28;20025;-85
2021/11/18 00:28:06;;;;;;;0.10;0.10;;;0.70;60.20;;;;;;5036739;28;20080;-84
2021/11/18 00:30:32;;;;;;;0.35;0.15;;;0.70;60.20;;;;;;5036124;28;20053;-87
2021/11/18 00:32:58;;;;;;;0.05;0.05;;;0.70;60.20;;;;;;5035991;28;20438;-85
2021/11/18 00:35:26;;;;;;;0.20;0.20;;;0.70;60.20;;;;;;5035086;28;20116;-85
2021/11/18 00:37:53;;;;;;;0.20;0.20;;;0.70;60.30;;;;;;5036595;28;20082;-85
2021/11/18 00:40:23;;;;;;;0.10;0.10;;;0.70;60.30;;;;;;5036432;28;20067;-86
2021/11/18 00:42:50;;;;;;;0.10;0.10;;;0.60;60.30;;;;;;5037045;28;20045;-85
2021/11/18 00:45:20;;;;;;;0.10;0.10;;;0.60;60.40;;;;;;5036192;28;20079;-85
2021/11/18 00:47:47;;;;;;;0.10;0.10;;;0.60;60.40;;;;;;5036417;28;20087;-85
2021/11/18 00:50:14;;;;;;;0.10;0.10;;;0.60;60.50;;;;;;5034712;28;20029;-85
2021/11/18 00:52:40;;;;;;;0.00;0.00;;;0.50;60.50;;;;;;5035623;28;20386;-85
2021/11/18 00:55:07;;;;;;;0.10;0.10;;;0.50;60.60;;;;;;5035838;28;20037;-85
2021/11/18 00:57:34;;;;;;;0.05;0.05;;;0.50;60.60;;;;;;5035499;28;20021;-85
2021/11/18 01:00:00;;;;;;;0.10;0.10;;;0.50;60.60;;;;;;5035292;28;20025;-85
2021/11/18 01:02:26;;;;;;;0.20;0.20;;;0.50;60.70;;;;;;5034746;28;20030;-85
2021/11/18 01:04:52;;;;;;;0.00;0.00;;;0.50;60.80;;;;;;5034746;28;20075;-85
2021/11/18 01:07:17;;;;;;;0.10;0.10;;;0.50;60.80;;;;;;5034817;28;20043;-85
2021/11/18 01:09:43;;;;;;;0.17;0.17;;;0.50;60.90;;;;;;5034524;28;20025;-85
2021/11/18 01:12:11;;;;;;;0.10;0.10;;;0.50;60.90;;;;;;5035394;28;20034;-85
2021/11/18 01:14:37;;;;;;;0.10;0.10;;;0.50;60.90;;;;;;5033954;28;20095;-85
2021/11/18 01:17:04;;;;;;;0.00;0.00;;;0.50;61.00;;;;;;5034602;28;20121;-84
2021/11/18 01:19:31;;;;;;;0.10;0.10;;;0.50;61.10;;;;;;5034668;28;20037;-85
2021/11/18 01:21:57;;;;;;;0.10;0.10;;;0.50;61.10;;;;;;5034511;28;20048;-86
2021/11/18 01:24:24;;;;;;;0.10;0.10;;;0.40;61.10;;;;;;5033496;28;20033;-85
2021/11/18 01:26:49;;;;;;;0.10;0.10;;;0.50;61.20;;;;;;5033036;28;20502;-85
2021/11/18 01:29:16;;;;;;;0.10;0.10;;;0.50;61.20;;;;;;5033706;28;20021;-85
2021/11/18 01:31:41;;;;;;;0.00;0.00;;;0.40;61.20;;;;;;5034121;28;20108;-85
2021/11/18 01:34:07;;;;;;;0.00;0.00;;;0.40;61.30;;;;;;5033982;28;20129;-85
2021/11/18 01:36:35;;;;;;;0.08;0.08;;;0.40;61.50;;;;;;5034075;28;20426;-85
2021/11/18 01:39:02;;;;;;;0.03;0.03;;;0.40;61.60;;;;;;5034512;28;20029;-85
2021/11/18 01:41:29;;;;;;;0.10;0.10;;;0.30;61.70;;;;;;5033996;28;20036;-85
2021/11/18 01:43:58;;;;;;;0.00;0.00;;;0.30;61.70;;;;;;5034213;28;20029;-85
2021/11/18 01:46:32;;;;;;;0.10;0.10;;;0.30;62.30;;;;;;5034084;28;20493;-85
2021/11/18 01:48:59;;;;;;;0.10;0.10;;;0.40;61.70;;;;;;5032887;28;20026;-85
2021/11/18 01:51:30;;;;;;;0.10;0.10;;;0.40;61.60;;;;;;5033412;28;20028;-85
2021/11/18 01:53:55;;;;;;;0.10;0.10;;;0.40;61.50;;;;;;5034347;28;20116;-85
2021/11/18 01:56:31;;;;;;;0.00;0.00;;;0.40;61.40;;;;;;5033784;28;20115;-85
2021/11/18 01:59:27;;;;;;;0.10;0.10;;;0.40;61.40;;;;;;5035008;28;20037;-84
2021/11/18 02:01:55;;;;;;;0.10;0.10;;;0.40;61.30;;;;;;5024917;28;20041;-85
2021/11/18 02:04:24;;;;;;;0.08;0.08;;;0.40;61.40;;;;;;5032321;28;20029;-86
2021/11/18 02:06:54;;;;;;;0.10;0.10;;;0.40;61.50;;;;;;5033855;28;20083;-85
2021/11/18 02:09:23;;;;;;;0.10;0.10;;;0.40;61.60;;;;;;5033699;28;20025;-85
2021/11/18 02:11:53;;;;;;;0.10;0.10;;;0.30;61.60;;;;;;5033870;28;20029;-85
2021/11/18 02:14:23;;;;;;;0.10;0.10;;;0.30;61.70;;;;;;5032391;28;20427;-85
2021/11/18 02:16:49;;;;;;;0.10;0.10;;;0.30;61.70;;;;;;5033399;28;20033;-85
2021/11/18 02:19:17;;;;;;;0.00;0.00;;;0.30;61.70;;;;;;5033660;28;20029;-85
2021/11/18 02:21:48;;;;;;;0.10;0.10;;;0.30;61.70;;;;;;5033633;28;20033;-85
2021/11/18 02:24:28;;;;;;;0.10;0.10;;;0.30;61.70;;;;;;5033389;28;20025;-85
2021/11/18 02:26:54;;;;;;;0.10;0.10;;;0.30;61.70;;;;;;5032315;28;20415;-83
2021/11/18 02:29:22;;;;;;;0.08;0.08;;;0.30;61.70;;;;;;5032975;28;20033;-83
2021/11/18 02:31:50;;;;;;;0.05;0.03;;;0.30;61.80;;;;;;5033353;28;20028;-83
2021/11/18 02:34:20;;;;;;;0.10;0.10;;;0.30;61.70;;;;;;5034010;28;20041;-83
2021/11/18 02:36:46;;;;;;;0.08;0.08;;;0.30;61.70;;;;;;5033954;28;20025;-83
2021/11/18 02:39:12;;;;;;;0.10;0.10;;;0.30;61.70;;;;;;5032913;28;20441;-83
2021/11/18 02:41:40;;;;;;;0.00;0.00;;;0.30;61.70;;;;;;5034361;28;20422;-83
2021/11/18 02:44:06;;;;;;;0.10;0.00;;;0.30;61.60;;;;;;5033848;28;20029;-83
2021/11/18 02:46:33;;;;;;;0.08;0.08;;;0.30;61.70;;;;;;5034348;28;20033;-83
2021/11/18 02:49:00;;;;;;;0.25;0.25;;;0.30;61.70;;;;;;5033944;28;20029;-83
2021/11/18 02:51:26;;;;;;;0.32;0.10;;;0.30;61.70;;;;;;5033333;28;20425;-83
2021/11/18 02:53:52;;;;;;;0.00;0.00;;;0.30;61.70;;;;;;5033883;28;20033;-83
2021/11/18 02:56:18;;;;;;;0.03;0.03;;;0.30;61.70;;;;;;5033714;28;20495;-83
2021/11/18 02:58:45;;;;;;;0.00;0.00;;;0.30;61.70;;;;;;5032662;28;20120;-83
2021/11/18 03:01:30;;;;;;;0.00;0.00;;;0.30;61.80;;;;;;5034387;28;20071;-83
2021/11/18 03:03:57;;;;;;;0.10;0.00;;;0.30;61.90;;;;;;5033278;28;20352;-83
2021/11/18 03:06:22;;;;;;;0.20;0.20;;;0.30;61.80;;;;;;5034229;28;20041;-83
2021/11/18 03:08:49;;;;;;;0.10;0.00;;;0.30;61.70;;;;;;5034605;28;20473;-84
2021/11/18 03:11:17;;;;;;;0.10;0.10;;;0.30;61.70;;;;;;5034332;28;20029;-84
2021/11/18 03:13:43;;;;;;;0.10;0.10;;;0.30;61.70;;;;;;5032906;28;20115;-83
2021/11/18 03:16:13;;;;;;;0.10;0.10;;;0.30;61.60;;;;;;5033919;28;20036;-83
2021/11/18 03:18:44;;;;;;;0.10;0.10;;;0.30;61.60;;;;;;5033557;28;20483;-83
2021/11/18 03:21:14;;;;;;;0.22;0.10;;;0.30;61.60;;;;;;5033870;28;20030;-83
2021/11/18 03:23:40;;;;;;;0.00;0.00;;;0.20;61.60;;;;;;5034338;28;20426;-83
2021/11/18 03:26:07;;;;;;;0.10;0.10;;;0.10;61.60;;;;;;5032540;28;20079;-82
2021/11/18 03:28:36;;;;;;;0.10;0.10;;;0.10;61.70;;;;;;5034271;28;20379;-83
2021/11/18 03:31:04;;;;;;;0.17;0.17;;;0.10;61.70;;;;;;5034478;28;20029;-83
2021/11/18 03:33:40;;;;;;;0.00;0.00;;;0.10;61.70;;;;;;5032559;28;20095;-84
2021/11/18 03:36:09;;;;;;;0.17;0.17;;;0.20;61.70;;;;;;5032242;28;20117;-82
2021/11/18 03:38:36;;;;;;;0.10;0.10;;;0.20;62.30;;;;;;5033954;28;20029;-83
2021/11/18 03:41:04;;;;;;;0.10;0.10;;;0.10;61.60;;;;;;5034327;28;20100;-83
2021/11/18 03:43:36;;;;;;;0.00;0.00;;;0.10;61.60;;;;;;5034369;28;20033;-84
2021/11/18 03:46:04;;;;;;;0.20;0.20;;;0.00;61.60;;;;;;5036380;28;20068;-83
2021/11/18 03:48:33;;;;;;;0.10;0.10;;;0.00;61.80;;;;;;5036775;28;20386;-83
2021/11/18 03:51:01;;;;;;;0.10;0.10;;;-0.10;61.90;;;;;;5037333;28;20395;-83
2021/11/18 03:53:27;;;;;;;0.20;0.17;;;-0.20;62.10;;;;;;5036377;28;20057;-83
2021/11/18 03:55:53;;;;;;;0.10;0.10;;;-0.20;62.20;;;;;;5037085;28;20072;-83
2021/11/18 03:58:19;;;;;;;0.15;0.15;;;-0.20;62.30;;;;;;5036688;28;20028;-83
2021/11/18 04:00:45;;;;;;;0.13;0.13;;;-0.20;62.30;;;;;;5037146;28;20459;-84
2021/11/18 04:03:12;;;;;;;0.10;0.10;;;-0.10;62.20;;;;;;5035875;28;20033;-83
2021/11/18 04:05:39;;;;;;;0.10;0.10;;;-0.20;62.10;;;;;;5037326;28;20037;-84
2021/11/18 04:08:08;;;;;;;0.20;0.20;;;-0.20;62.20;;;;;;5036890;28;20026;-83
2021/11/18 04:10:36;;;;;;;0.10;0.10;;;-0.20;62.20;;;;;;5037436;28;20029;-83
2021/11/18 04:13:03;;;;;;;0.08;0.08;;;-0.30;62.10;;;;;;5037062;28;20075;-83
2021/11/18 04:15:30;;;;;;;0.17;0.17;;;-0.30;62.10;;;;;;5034936;28;20037;-83
2021/11/18 04:17:57;;;;;;;0.10;0.10;;;-0.30;62.20;;;;;;5036672;28;20029;-83
2021/11/18 04:20:24;;;;;;;0.20;0.10;;;-0.40;62.20;;;;;;5035707;28;20554;-84
2021/11/18 04:22:51;;;;;;;0.20;0.20;;;-0.40;62.30;;;;;;5036800;28;20034;-83
2021/11/18 04:25:20;;;;;;;0.10;0.10;;;-0.50;62.30;;;;;;5035429;28;20044;-81
2021/11/18 04:27:46;;;;;;;0.03;0.03;;;-0.50;62.40;;;;;;5035736;28;20356;-82
2021/11/18 04:30:14;;;;;;;0.22;0.10;;;-0.60;62.50;;;;;;5034843;28;20033;-82
2021/11/18 04:32:40;;;;;;;0.13;0.13;;;-0.50;62.60;;;;;;5035979;28;20086;-82
2021/11/18 04:35:07;;;;;;;0.17;0.17;;;-0.50;62.60;;;;;;5036034;28;20136;-82
2021/11/18 04:37:34;;;;;;;0.10;0.10;;;-0.50;62.60;;;;;;5035637;28;20456;-83
2021/11/18 04:40:00;;;;;;;0.10;0.10;;;-0.50;62.50;;;;;;5036141;28;20095;-82
2021/11/18 04:42:26;;;;;;;0.10;0.10;;;-0.50;62.50;;;;;;5036175;28;20440;-82
2021/11/18 04:44:52;;;;;;;0.00;0.00;;;-0.40;62.50;;;;;;5035333;28;20029;-82
2021/11/18 04:47:18;;;;;;;0.10;0.10;;;-0.40;62.40;;;;;;5035855;28;20041;-82
2021/11/18 04:49:45;;;;;;;0.00;0.00;;;-0.40;62.30;;;;;;5035772;28;20491;-84
2021/11/18 04:52:13;;;;;;;0.20;0.20;;;-0.50;62.30;;;;;;5035178;28;20022;-83
2021/11/18 04:54:39;;;;;;;0.10;0.10;;;-0.40;62.50;;;;;;5033854;28;20026;-85
2021/11/18 04:57:06;;;;;;;0.13;0.10;;;-0.40;62.50;;;;;;5035687;28;20029;-83
2021/11/18 04:59:33;;;;;;;0.20;0.20;;;-0.40;62.50;;;;;;5034915;28;20033;-83
2021/11/18 05:02:00;;;;;;;0.00;0.00;;;-0.40;62.50;;;;;;5035283;28;20025;-83
2021/11/18 05:04:26;;;;;;;0.20;0.20;;;-0.30;62.60;;;;;;5035143;28;20061;-83
2021/11/18 05:06:52;;;;;;;0.10;0.10;;;-0.30;62.50;;;;;;5035488;28;20074;-87
2021/11/18 05:09:17;;;;;;;0.00;0.00;;;-0.20;62.50;;;;;;5033876;28;20138;-88
2021/11/18 05:11:44;;;;;;;0.10;0.10;;;-0.20;62.30;;;;;;5034101;28;20036;-84
2021/11/18 05:14:11;;;;;;;0.10;0.10;;;-0.20;62.20;;;;;;5035192;28;20022;-85
2021/11/18 05:16:37;;;;;;;0.00;0.00;;;-0.10;62.20;;;;;;5035363;28;20032;-85
2021/11/18 05:19:03;;;;;;;0.00;0.00;;;-0.10;62.20;;;;;;5034828;28;20029;-87
2021/11/18 05:21:30;;;;;;;0.10;0.10;;;-0.10;62.20;;;;;;5037166;28;20026;-84
2021/11/18 05:23:59;;;;;;;0.00;0.00;;;-0.10;62.20;;;;;;5036580;28;20025;-87
2021/11/18 05:26:25;;;;;;;0.10;0.10;;;0.00;62.20;;;;;;5034685;28;20092;-86
2021/11/18 05:28:52;;;;;;;0.00;0.00;;;0.00;62.00;;;;;;5034819;28;20032;-86
2021/11/18 05:31:20;;;;;;;0.10;0.10;;;0.10;61.90;;;;;;5034900;28;20071;-85
2021/11/18 05:33:46;;;;;;;0.10;0.10;;;0.10;62.00;;;;;;5037204;28;20041;-85
2021/11/18 05:36:13;;;;;;;0.10;0.10;;;0.10;61.90;;;;;;5034361;28;20030;-86
2021/11/18 05:38:40;;;;;;;0.20;0.20;;;0.10;61.90;;;;;;5034545;28;20457;-86
2021/11/18 05:41:06;;;;;;;0.00;0.00;;;0.10;61.90;;;;;;5033491;28;20525;-84
2021/11/18 05:43:35;;;;;;;0.10;0.10;;;0.20;62.00;;;;;;5034409;28;20021;-85
2021/11/18 05:46:01;;;;;;;0.10;0.10;;;0.20;62.00;;;;;;5034241;28;20065;-86
2021/11/18 05:48:27;;;;;;;0.00;0.00;;;0.20;61.90;;;;;;5033906;28;20037;-85
2021/11/18 05:50:57;;;;;;;0.10;0.10;;;0.30;61.90;;;;;;5033115;28;20048;-86
2021/11/18 05:53:29;;;;;;;0.15;0.10;;;0.40;61.90;;;;;;5036354;28;20104;-86
2021/11/18 05:55:55;;;;;;;0.10;0.10;;;0.40;61.80;;;;;;5033778;28;20541;-85
2021/11/18 05:58:22;;;;;;;0.28;0.10;;;0.40;61.70;;;;;;5033881;28;20129;-86
2021/11/18 06:00:48;;;;;;;0.00;0.00;;;0.50;61.60;;;;;;5034141;28;20383;-86
2021/11/18 06:03:13;;;;;;;0.10;0.10;;;0.50;61.50;;;;;;5034297;28;20053;-86
2021/11/18 06:05:39;;;;;;;0.15;0.15;;;0.50;61.60;;;;;;5035557;28;20073;-87
2021/11/18 06:08:05;;;;;;;0.10;0.10;;;0.60;61.50;;;;;;5033164;28;20080;-85
2021/11/18 06:10:32;;;;;;;0.13;0.13;;;0.60;61.40;;;;;;5033596;28;20018;-85
2021/11/18 06:13:00;;;;;;;0.10;0.10;;;0.60;61.30;;;;;;5033996;28;20465;-85
2021/11/18 06:15:27;;;;;;;0.10;0.10;;;0.60;61.10;;;;;;5033371;28;20490;-85
2021/11/18 06:17:52;;;;;;;0.10;0.10;;;0.70;61.00;;;;;;5033645;28;20025;-86
2021/11/18 06:20:18;;;;;;;0.10;0.10;;;0.60;61.00;;;;;;5032788;28;20030;-85
2021/11/18 06:22:45;;;;;;;0.00;0.00;;;0.60;61.10;;;;;;5033768;28;20096;-86
2021/11/18 06:25:16;;;;;;;0.10;0.10;;;0.60;61.10;;;;;;5034312;28;20021;-85
2021/11/18 06:27:44;;;;;;;0.00;0.00;;;0.60;61.20;;;;;;5034402;28;20029;-86
2021/11/18 06:30:16;;;;;;;0.10;0.10;;;0.70;61.10;;;;;;5033758;28;20030;-86
2021/11/18 06:32:42;;;;;;;0.10;0.10;;;0.80;61.00;;;;;;5033652;28;20018;-86
2021/11/18 06:35:08;;;;;;;0.20;0.20;;;0.80;60.90;;;;;;5033693;28;20057;-85
2021/11/18 06:37:35;;;;;;;0.10;0.10;;;0.90;60.90;;;;;;5033551;28;20050;-85
2021/11/18 06:40:03;;;;;;;0.28;0.10;;;0.90;60.80;;;;;;5032231;28;20032;-85
2021/11/18 06:42:29;;;;;;;0.32;0.10;;;1.00;60.80;;;;;;5033250;28;20022;-86
2021/11/18 06:44:55;;;;;;;0.20;0.20;;;1.10;60.80;;;;;;5033488;28;20422;-86
2021/11/18 06:47:21;;;;;;;0.10;0.10;;;1.20;60.70;;;;;;5033209;28;20036;-85
2021/11/18 06:49:47;;;;;;;0.10;0.10;;;1.30;60.60;;;;;;5033447;28;20029;-86
2021/11/18 06:52:12;;;;;;;0.10;0.10;;;1.40;60.40;;;;;;5033470;28;20033;-86
2021/11/18 06:54:38;;;;;;;0.15;0.15;;;1.50;60.30;;;;;;5033338;28;20501;-86
2021/11/18 06:57:05;;;;;;;0.05;0.05;;;1.70;60.90;;;;;;5032355;28;20036;-85
2021/11/18 06:59:31;;;;;;;0.00;0.00;;;1.80;60.00;;;;;;5029861;28;20038;-86
2021/11/18 07:01:57;;;;;;;0.00;0.00;;;2.00;59.80;;;;;;5032030;28;20025;-86
2021/11/18 07:04:23;;;;;;;0.15;0.15;;;2.10;59.60;;;;;;5033044;28;20034;-85
2021/11/18 07:06:50;;;;;;;0.10;0.10;;;2.30;59.40;;;;;;5032864;28;20498;-86
2021/11/18 07:09:16;;;;;;;0.00;0.00;;;2.40;59.20;;;;;;5032855;28;20036;-87
2021/11/18 07:11:42;;;;;;;0.00;0.00;;;2.50;58.90;;;;;;5033224;28;20108;-88
2021/11/18 07:14:08;;;;;;;0.10;0.10;;;2.60;58.90;;;;;;5032945;28;20026;-86
2021/11/18 07:16:34;;;;;;;0.00;0.00;;;2.80;58.60;;;;;;5032053;28;20040;-86
2021/11/18 07:19:05;;;;;;;0.00;0.00;;;2.90;58.50;;;;;;5036017;28;20025;-85
2021/11/18 07:21:32;;;;;;;0.10;0.10;;;3.10;58.50;;;;;;5035859;28;20034;-86
2021/11/18 07:23:59;;;;;;;0.00;0.00;;;3.40;58.20;;;;;;5037253;28;20053;-86
2021/11/18 07:26:25;;;;;;;0.00;0.00;;;3.50;57.90;;;;;;5036975;28;20064;-86
2021/11/18 07:28:52;;;;;;;0.05;0.05;;;3.60;57.50;;;;;;5037180;28;20060;-86
2021/11/18 07:31:18;;;;;;;0.00;0.00;;;3.70;57.50;;;;;;5036874;28;20463;-86
2021/11/18 07:33:44;;;;;;;0.00;0.00;;;3.70;57.40;;;;;;5037012;28;20026;-87
2021/11/18 07:36:10;;;;;;;0.00;0.00;;;3.80;57.40;;;;;;5035217;28;20120;-86
2021/11/18 07:38:37;;;;;;;0.00;0.00;;;3.90;57.40;;;;;;5037079;28;20048;-87
2021/11/18 07:41:06;;;;;;;0.00;0.00;;;4.00;57.30;;;;;;5037102;28;20021;-87
2021/11/18 07:43:35;;;;;;;0.00;0.00;;;4.10;57.10;;;;;;5035895;28;20022;-86
2021/11/18 07:46:03;;;;;;;0.00;0.00;;;4.10;57.00;;;;;;5035348;28;20389;-86
2021/11/18 07:48:30;;;;;;;0.00;0.00;;;4.20;56.90;;;;;;5036144;28;20183;-85
2021/11/18 07:50:57;;;;;;;0.00;0.00;;;4.30;56.90;;;;;;5036781;28;20029;-85
2021/11/18 07:53:24;;;;;;;0.00;0.00;;;4.40;56.80;;;;;;5036321;28;20029;-86
2021/11/18 07:55:50;;;;;;;0.25;0.10;;;4.40;56.60;;;;;;5035539;28;20035;-85
2021/11/18 07:58:16;;;;;;;0.00;0.00;;;4.40;56.70;;;;;;5035841;28;20518;-85
2021/11/18 08:00:44;;;;;;;0.00;0.00;;;4.40;56.70;;;;;;5035481;28;20099;-86
2021/11/18 08:03:12;;;;;;;0.00;0.00;;;4.40;56.80;;;;;;5034881;28;20036;-85
2021/11/18 08:05:38;;;;;;;0.10;0.10;;;4.40;56.70;;;;;;5032659;28;20064;-86
2021/11/18 08:08:04;;;;;;;0.03;0.03;;;4.40;56.90;;;;;;5035124;28;20108;-86
2021/11/18 08:10:30;;;;;;;0.05;0.05;;;4.50;56.90;;;;;;5035115;28;20025;-85
2021/11/18 08:12:55;;;;;;;0.00;0.00;;;4.40;56.70;;;;;;5034109;28;20068;-84
2021/11/18 08:15:22;;;;;;;0.00;0.00;;;4.40;56.90;;;;;;5036013;28;20040;-85
2021/11/18 08:17:48;;;;;;;0.00;0.00;;;4.30;56.90;;;;;;5036122;28;20037;-86
2021/11/18 08:20:15;;;;;;;0.00;0.00;;;4.40;57.00;;;;;;5036001;28;20029;-86
2021/11/18 08:22:42;;;;;;;0.00;0.00;;;4.40;56.90;;;;;;5035777;28;20076;-85
2021/11/18 08:25:10;;;;;;;0.00;0.00;;;4.30;56.70;;;;;;5034555;28;20040;-86
2021/11/18 08:27:38;;;;;;;0.00;0.00;;;4.20;56.70;;;;;;5033928;28;20022;-85
2021/11/18 08:30:10;;;;;;;0.00;0.00;;;4.10;56.70;;;;;;5033426;28;20034;-86
2021/11/18 08:32:39;;;;;;;0.05;0.05;;;4.00;56.90;;;;;;5034864;28;20032;-86
2021/11/18 08:35:05;;;;;;;0.10;0.10;;;3.90;56.90;;;;;;5034461;28;20077;-86
2021/11/18 08:37:31;;;;;;;0.08;0.08;;;3.80;57.00;;;;;;5034160;28;20014;-86
2021/11/18 08:39:57;;;;;;;1.15;0.05;;;3.90;57.10;;;;;;5034650;28;20525;-86
2021/11/18 08:42:26;;;;;;;0.00;0.00;;;3.80;56.90;;;;;;5034082;28;20038;-88
2021/11/18 08:44:51;;;;;;;0.00;0.00;;;3.90;57.00;;;;;;5030971;28;20034;-86
2021/11/18 08:47:18;;;;;;;0.10;0.10;;;4.00;57.20;;;;;;5034918;28;20382;-86
2021/11/18 08:49:44;;;;;;;0.10;0.10;;;4.30;57.40;;;;;;5033700;28;20029;-86
2021/11/18 08:52:13;;;;;;;0.00;0.00;;;4.90;57.80;;;;;;5032346;28;20021;-86
2021/11/18 08:54:42;;;;;;;0.00;0.00;;;6.30;58.00;;;;;;5034814;28;20021;-86
2021/11/18 09:00:37;;;;;;;0.00;0.00;;;8.70;54.00;;;;;;5031611;28;20036;-86
2021/11/18 09:03:03;;;;;;;0.00;0.00;;;9.00;51.80;;;;;;5035177;28;20056;-86
2021/11/18 09:05:30;;;;;;;0.00;0.00;;;8.80;51.00;;;;;;5033703;28;20360;-85
2021/11/18 09:07:57;;;;;;;0.00;0.00;;;8.60;50.90;;;;;;5033120;28;20029;-86
2021/11/18 09:10:24;;;;;;;0.00;0.00;;;8.40;50.70;;;;;;5033945;28;20029;-85
2021/11/18 09:12:49;;;;;;;0.00;0.00;;;8.10;51.30;;;;;;5034191;28;20036;-86
2021/11/18 09:15:19;;;;;;;0.00;0.00;;;7.70;50.80;;;;;;5033965;28;20026;-86
2021/11/18 09:17:45;;;;;;;0.25;0.10;;;7.30;51.20;;;;;;5032624;28;20109;-86
2021/11/18 09:20:13;;;;;;;0.00;0.00;;;6.90;51.70;;;;;;5031302;28;20022;-85
2021/11/18 09:22:39;;;;;;;0.00;0.00;;;6.60;52.20;;;;;;5034058;28;20520;-86
2021/11/18 09:25:09;;;;;;;0.00;0.00;;;6.20;52.60;;;;;;5032822;28;20069;-86
2021/11/18 09:27:56;;;;;;;0.00;0.00;;;6.00;53.20;;;;;;5033230;28;20071;-86
2021/11/18 09:30:30;;;;;;;0.30;0.00;;;5.70;53.60;;;;;;5035649;28;20091;-86
2021/11/18 09:32:57;;;;;;;0.00;0.00;;;5.60;54.00;;;;;;5034761;28;20053;-86
2021/11/18 09:35:46;;;;;;;0.00;0.00;;;5.50;54.30;;;;;;5033500;28;20056;-85
2021/11/18 09:38:14;;;;;;;0.00;0.00;;;5.40;54.60;;;;;;5034663;28;20025;-87
2021/11/18 09:40:49;;;;;;;0.10;0.10;;;5.30;54.70;;;;;;5034378;28;20025;-87
2021/11/18 09:43:51;;;;;;;0.00;0.00;;;5.30;55.00;;;;;;5033988;28;20112;-86
2021/11/18 09:46:59;;;;;;;0.00;0.00;;;5.30;55.10;;;;;;5034296;28;20037;-87
2021/11/18 09:50:01;;;;;;;0.13;0.05;;;5.20;55.20;;;;;;5028449;28;20030;-85
2021/11/18 09:53:21;;;;;;;0.00;0.00;;;5.20;55.40;;;;;;5033698;28;20056;-84
2021/11/18 09:55:50;;;;;;;0.05;0.03;;;5.20;55.50;;;;;;4995652;28;20479;-86
2021/11/18 09:58:24;;;;;;;0.08;0.00;;;5.20;55.50;;;;;;5034333;28;20060;-86
2021/11/18 10:01:30;;;;;;;0.10;0.10;;;5.10;55.60;;;;;;5031647;28;20438;-85
2021/11/18 10:04:24;;;;;;;0.00;0.00;;;5.10;55.90;;;;;;5014398;28;20034;-87
2021/11/18 10:07:00;;;;;;;0.00;0.00;;;4.90;56.00;;;;;;5015620;28;20041;-85
2021/11/18 10:09:37;;;;;;;0.00;0.00;;;4.80;56.30;;;;;;5030295;28;20056;-86
2021/11/18 10:12:21;;;;;;;0.10;0.00;;;4.70;57.20;;;;;;5034472;28;20039;-86
2021/11/18 10:14:58;;;;;;;0.08;0.08;;;4.60;56.80;;;;;;5026936;28;20060;-85
2021/11/18 10:17:38;;;;;;;0.00;0.00;;;4.70;57.00;;;;;;5026625;28;20049;-85
2021/11/18 10:20:12;;;;;;;0.30;0.00;;;4.70;57.10;;;;;;5033124;28;20029;-85
2021/11/18 10:22:48;;;;;;;0.00;0.00;;;4.70;57.20;;;;;;5031799;28;20037;-86
2021/11/18 10:25:17;;;;;;;0.00;0.00;;;4.80;57.20;;;;;;5033866;28;20079;-86
2021/11/18 10:27:51;;;;;;;0.00;0.00;;;4.90;57.40;;;;;;5029342;28;20360;-84
2021/11/18 10:30:33;;;;;;;0.00;0.00;;;5.00;57.30;;;;;;5031200;28;20116;-86
2021/11/18 10:33:12;;;;;;;0.00;0.00;;;5.10;57.30;;;;;;5033616;28;20026;-86
2021/11/18 10:36:00;;;;;;;0.00;0.00;;;5.10;57.30;;;;;;5032320;28;20045;-86
2021/11/18 10:38:32;;;;;;;0.00;0.00;;;5.30;57.30;;;;;;5034542;28;20021;-85
2021/11/18 10:41:18;;;;;;;0.10;0.10;;;5.40;57.10;;;;;;5030854;28;20022;-86
2021/11/18 10:44:15;;;;;;;0.00;0.00;;;5.40;57.10;;;;;;5034295;28;20037;-85
2021/11/18 10:47:27;;;;;;;0.00;0.00;;;5.40;57.10;;;;;;5024848;28;20116;-86
2021/11/18 10:50:06;;;;;;;0.00;0.00;;;5.30;57.20;;;;;;5035237;28;20560;-86
2021/11/18 10:52:36;;;;;;;0.00;0.00;;;5.30;57.20;;;;;;5033576;28;20021;-85
2021/11/18 10:55:10;;;;;;;0.00;0.00;;;5.20;57.30;;;;;;5039893;28;20021;-86
2021/11/18 10:57:51;;;;;;;0.08;0.08;;;5.20;57.50;;;;;;5032734;28;20021;-84
2021/11/18 11:00:22;;;;;;;0.00;0.00;;;5.10;57.50;;;;;;5033081;28;20041;-86
2021/11/18 11:02:48;;;;;;;0.00;0.00;;;5.20;57.80;;;;;;5038914;28;20021;-86
2021/11/18 11:05:31;;;;;;;0.10;0.10;;;5.10;57.80;;;;;;5033516;28;20041;-86
2021/11/18 11:07:58;;;;;;;0.00;0.00;;;5.20;58.00;;;;;;5033130;28;20053;-85
2021/11/18 11:10:27;;;;;;;0.00;0.00;;;5.20;57.90;;;;;;5036106;28;20022;-86
2021/11/18 11:13:05;;;;;;;0.00;0.00;;;5.20;58.00;;;;;;5036661;28;20383;-85
2021/11/18 11:15:50;;;;;;;0.00;0.00;;;5.20;58.10;;;;;;5036462;28;20045;-86
2021/11/18 11:18:48;;;;;;;0.00;0.00;;;5.10;58.10;;;;;;5036385;28;20029;-86
2021/11/18 11:21:25;;;;;;;0.00;0.00;;;5.10;58.20;;;;;;5014446;28;20124;-86
2021/11/18 11:24:09;;;;;;;0.00;0.00;;;5.10;58.20;;;;;;5037397;28;20080;-86
2021/11/18 11:27:09;;;;;;;0.00;0.00;;;5.20;58.30;;;;;;5036846;28;20463;-85
2021/11/18 11:29:46;;;;;;;0.00;0.00;;;5.20;58.30;;;;;;5036151;28;20471;-86
2021/11/18 11:32:49;;;;;;;0.05;0.00;;;5.10;58.30;;;;;;5036030;28;20083;-86
2021/11/18 11:35:26;;;;;;;0.00;0.00;;;5.20;58.50;;;;;;5037711;28;20072;-85
2021/11/18 11:38:10;;;;;;;0.10;0.00;;;5.20;58.50;;;;;;5036875;28;20083;-85
2021/11/18 11:40:48;;;;;;;0.00;0.00;;;5.30;58.70;;;;;;5036474;28;20041;-86
2021/11/18 11:43:45;;;;;;;0.00;0.00;;;5.30;58.50;;;;;;5036932;28;20498;-86
2021/11/18 11:46:30;;;;;;;0.00;0.00;;;5.40;58.60;;;;;;5037148;28;20034;-88
2021/11/18 11:49:00;;;;;;;;;;;5.50;58.40;;;;;;5037646;28;20057;-85
2021/11/18 11:51:34;;;;;;;0.00;0.00;;;5.50;58.30;;;;;;5037520;28;19944;-86
2021/11/18 11:54:42;;;;;;;0.00;0.00;;;5.50;58.10;;;;;;5032015;28;20087;-86
2021/11/18 11:57:26;;;;;;;0.00;0.00;;;5.40;58.20;;;;;;5033514;28;20037;-85
2021/11/18 12:00:18;;;;;;;0.00;0.00;;;5.40;58.20;;;;;;5037152;28;20480;-87
2021/11/18 12:02:59;;;;;;;0.00;0.00;;;5.30;59.40;;;;;;5028244;28;20042;-85
2021/11/18 12:05:24;;;;;;;0.00;0.00;;;5.20;59.30;;;;;;5035212;28;20037;-86
2021/11/18 12:08:13;;;;;;;0.00;0.00;;;5.10;59.30;;;;;;5035988;28;20422;-86
2021/11/18 12:11:02;;;;;;;0.00;0.00;;;5.10;59.50;;;;;;5036582;28;20030;-86
2021/11/18 12:13:57;;;;;;;0.00;0.00;;;5.10;59.50;;;;;;5035730;28;20022;-85
2021/11/18 12:16:39;;;;;;;0.00;0.00;;;5.10;59.60;;;;;;5017231;28;20084;-86
2021/11/18 12:19:35;;;;;;;0.03;0.03;;;5.10;59.60;;;;;;5019896;28;20030;-86
2021/11/18 12:22:29;;;;;;;0.00;0.00;;;5.10;59.70;;;;;;5016826;28;20080;-86
2021/11/18 12:25:05;;;;;;;0.10;0.10;;;5.00;59.90;;;;;;5035310;28;20033;-86
2021/11/18 12:27:34;;;;;;;0.08;0.08;;;5.10;60.00;;;;;;5032146;28;20036;-85
2021/11/18 12:30:18;;;;;;;0.00;0.00;;;5.10;60.00;;;;;;5035196;28;20352;-86
2021/11/18 12:32:58;;;;;;;0.00;0.00;;;5.10;60.10;;;;;;5035799;28;20021;-86
2021/11/18 12:35:30;;;;;;;0.03;0.03;;;5.10;60.10;;;;;;5035757;28;20110;-86
2021/11/18 12:38:14;;;;;;;0.00;0.00;;;5.10;60.00;;;;;;5035563;28;20025;-86
2021/11/18 12:40:57;;;;;;;0.65;0.10;;;5.20;60.10;;;;;;5034846;28;20029;-86
2021/11/18 12:43:38;;;;;;;0.00;0.00;;;5.20;60.00;;;;;;5035105;28;20024;-86
2021/11/18 12:46:24;;;;;;;0.00;0.00;;;5.20;60.10;;;;;;5035571;28;20053;-86
2021/11/18 12:48:53;;;;;;;0.00;0.00;;;5.20;60.20;;;;;;5032894;28;20018;-86
2021/11/18 12:51:21;;;;;;;0.10;0.10;;;5.10;60.20;;;;;;5035506;28;20025;-86
2021/11/18 12:57:43;;;;;;;0.08;0.08;;;5.00;60.50;;;;;;5035316;28;20041;-85
2021/11/18 13:00:19;;;;;;;0.00;0.00;;;5.00;60.70;;;;;;5025322;28;20037;-85
2021/11/18 13:02:54;;;;;;;0.00;0.00;;;4.90;60.80;;;;;;5027210;28;20056;-85
2021/11/18 13:05:19;;;;;;;0.10;0.10;;;4.90;61.00;;;;;;5033445;28;20160;-85
2021/11/18 13:07:49;;;;;;;0.00;0.00;;;4.90;61.10;;;;;;5031297;28;20125;-85
2021/11/18 13:10:18;;;;;;;0.57;0.10;;;4.80;61.20;;;;;;5030261;28;20379;-85
2021/11/18 13:13:03;;;;;;;0.00;0.00;;;4.80;61.40;;;;;;5034352;28;20025;-84
2021/11/18 13:15:56;;;;;;;0.00;0.00;;;4.80;61.50;;;;;;5031982;28;20033;-85
2021/11/18 13:18:28;;;;;;;0.00;0.00;;;4.80;61.60;;;;;;5026144;28;20037;-85
2021/11/18 13:21:15;;;;;;;0.00;0.00;;;4.90;61.60;;;;;;5034768;28;20044;-85
2021/11/18 13:23:56;;;;;;;0.10;0.05;;;4.90;61.60;;;;;;5034948;28;20036;-87